Terminal Aerodrome Forecast
Issued by NWS

Home | Current Version | Previous Version | Graphics & Text | Print | Product List | Glossary On
Versions: 1 2 3 4 5 6 7 8 9 10 11 12 13 14 15 16 17 18 19 20
000
FTUS43 KEAX 271200 AAA
TAFMKC
TAF AMD
KMKC 271207Z 2712/2812 30008KT P6SM BKN026 OVC100
     FM271300 31011G20KT P6SM BKN015
     FM271600 31008KT P6SM SCT025
     FM272300 32006KT P6SM SKC=

USA.gov is the U.S. government's official web portal to all federal, state and local government web resources and services.